METAR Data
IDs: Format: Raw Decoded Include TAF

Data at: 0058 UTC 20 Jul 2019

METAR for:KCWI (Clinton Muni, IA, US)
Text:KCWI 200056Z AUTO 21013KT 10SM CLR 32/27 A2975 RMK AO2 SLP070 T03170267
Temperature: 31.7°C ( 89°F)
Dewpoint: 26.7°C ( 80°F) [RH = 75%]
Pressure (altimeter):29.75 inches Hg (1007.5 mb) [Sea level pressure: 1007.0 mb]
Winds:from the SSW (210 degrees) at 15 MPH (13 knots; 6.7 m/s)
Visibility:10 or more sm (16+ km)
Ceiling:at least 12,000 feet AGL
Clouds:sky clear below 12,000 feet AGL
QC Flag:automated observation with no human augmentation